createdAt,value
2023-05-22T00:00:00.329Z,4.1
2023-05-22T00:05:00.533Z,2.4
2023-05-22T00:10:00.368Z,4.8
2023-05-22T00:15:00.322Z,2.6
2023-05-22T00:20:00.324Z,2.9
2023-05-22T00:25:00.279Z,3.3
2023-05-22T00:30:00.355Z,4.4
2023-05-22T00:35:00.254Z,3.2
2023-05-22T00:40:00.371Z,1.2
2023-05-22T00:45:00.313Z,3.7
2023-05-22T00:50:00.274Z,3.8
2023-05-22T00:55:00.448Z,2.3
2023-05-22T01:00:00.391Z,4.8
2023-05-22T01:05:00.290Z,4.5
2023-05-22T01:10:00.344Z,4.1
2023-05-22T01:15:00.300Z,4.2
2023-05-22T01:20:00.314Z,3.6
2023-05-22T01:25:00.359Z,1.2
2023-05-22T01:30:00.274Z,1.5
2023-05-22T01:35:00.317Z,0.9
2023-05-22T01:40:00.323Z,0.2
2023-05-22T01:45:00.308Z,0.0
2023-05-22T01:50:00.339Z,0.1
2023-05-22T01:55:00.323Z,0.8
2023-05-22T02:00:00.332Z,0.9
2023-05-22T02:05:00.387Z,2.4
2023-05-22T02:10:00.317Z,3.3
2023-05-22T02:15:00.342Z,2.6
2023-05-22T02:20:00.327Z,3.3
2023-05-22T02:25:00.256Z,2.2
2023-05-22T02:30:00.357Z,1.4
2023-05-22T02:35:00.510Z,2.1
2023-05-22T02:40:00.268Z,1.7
2023-05-22T02:45:00.337Z,2.3
2023-05-22T02:50:00.333Z,0.9
2023-05-22T02:55:00.257Z,1.5
2023-05-22T03:00:00.528Z,0.8
2023-05-22T03:05:00.292Z,0.1
2023-05-22T03:10:00.317Z,1.0
2023-05-22T03:15:00.311Z,0.2
2023-05-22T03:20:00.355Z,0.2
2023-05-22T03:25:00.331Z,0.3
2023-05-22T03:30:00.359Z,0.1
2023-05-22T03:35:00.263Z,0.0
2023-05-22T03:40:00.366Z,0.0
2023-05-22T03:45:00.371Z,0.0
2023-05-22T03:50:00.332Z,0.5
2023-05-22T03:55:00.311Z,1.0
2023-05-22T04:00:00.325Z,2.0
2023-05-22T04:05:00.501Z,3.2
2023-05-22T04:10:00.424Z,2.5
2023-05-22T04:15:00.309Z,1.9
2023-05-22T04:20:00.379Z,1.2
2023-05-22T04:25:00.281Z,2.1
2023-05-22T04:30:00.868Z,2.3
2023-05-22T04:35:00.505Z,4.2
2023-05-22T04:40:00.364Z,0.7
2023-05-22T04:45:00.295Z,2.4
2023-05-22T04:50:00.388Z,1.7
2023-05-22T04:55:02.771Z,2.5
2023-05-22T05:00:00.371Z,1.8
2023-05-22T05:05:00.390Z,2.9
2023-05-22T05:10:00.321Z,4.2
2023-05-22T05:15:00.313Z,4.9
2023-05-22T05:20:00.296Z,3.8
2023-05-22T05:25:00.270Z,3.7
2023-05-22T05:30:00.348Z,5.0
2023-05-22T05:35:00.338Z,4.4
2023-05-22T05:40:00.364Z,3.5
2023-05-22T05:45:00.303Z,4.4
2023-05-22T05:50:00.344Z,4.8
2023-05-22T05:55:00.295Z,4.3
2023-05-22T06:00:00.499Z,2.6
2023-05-22T06:05:00.346Z,1.3
2023-05-22T06:10:00.377Z,4.1
2023-05-22T06:15:00.271Z,2.7
2023-05-22T06:20:00.427Z,5.4
2023-05-22T06:25:00.335Z,9.0
2023-05-22T06:30:00.386Z,5.7
2023-05-22T06:35:00.274Z,3.4
2023-05-22T06:40:00.369Z,5.3
2023-05-22T06:45:00.575Z,8.5
2023-05-22T06:50:00.442Z,6.7
2023-05-22T06:55:00.378Z,6.8
2023-05-22T07:00:00.443Z,3.8
2023-05-22T07:05:00.335Z,3.3
2023-05-22T07:10:00.329Z,1.0
2023-05-22T07:15:00.478Z,3.6
2023-05-22T07:20:00.438Z,4.0
2023-05-22T07:25:00.321Z,9.8
2023-05-22T07:30:00.331Z,6.4
2023-05-22T07:35:00.264Z,3.7
2023-05-22T07:40:00.459Z,3.4
2023-05-22T07:45:00.320Z,5.6
2023-05-22T07:50:00.485Z,6.6
2023-05-22T07:55:00.346Z,7.3
2023-05-22T08:00:00.446Z,11.4
2023-05-22T08:05:00.558Z,7.6
2023-05-22T08:10:00.548Z,10.7
2023-05-22T08:15:00.333Z,9.1
2023-05-22T08:20:00.769Z,5.2
2023-05-22T08:25:00.318Z,7.6
2023-05-22T08:30:00.564Z,8.6
2023-05-22T08:35:00.279Z,8.3
2023-05-22T08:40:00.330Z,9.0
2023-05-22T08:45:00.326Z,6.0
2023-05-22T08:50:00.335Z,4.6
2023-05-22T08:55:00.315Z,6.7
2023-05-22T09:00:00.356Z,6.3
2023-05-22T09:05:00.381Z,7.7
2023-05-22T09:10:00.322Z,10.8
2023-05-22T09:15:00.313Z,10.7
2023-05-22T09:20:00.393Z,4.4
2023-05-22T09:25:00.334Z,6.9
2023-05-22T09:30:00.327Z,8.1
2023-05-22T09:35:00.494Z,5.6
2023-05-22T09:40:00.365Z,10.6
2023-05-22T09:45:00.352Z,6.1
2023-05-22T09:50:00.362Z,4.8
2023-05-22T09:55:00.323Z,5.2
2023-05-22T10:00:00.425Z,5.3
2023-05-22T10:05:00.292Z,9.4
2023-05-22T10:10:00.290Z,10.6
2023-05-22T10:15:00.343Z,6.0
2023-05-22T10:20:00.391Z,8.5
2023-05-22T10:25:00.304Z,3.2
2023-05-22T10:30:00.484Z,4.3
2023-05-22T10:35:00.620Z,5.5
2023-05-22T10:40:00.327Z,9.2
2023-05-22T10:45:00.319Z,5.3
2023-05-22T10:50:00.443Z,8.6
2023-05-22T10:55:00.282Z,11.6
2023-05-22T11:00:00.377Z,6.6
2023-05-22T11:05:00.449Z,7.3
2023-05-22T11:10:00.332Z,5.9
2023-05-22T11:15:00.329Z,9.6
2023-05-22T11:20:00.611Z,5.4
2023-05-22T11:25:00.486Z,5.7
2023-05-22T11:30:00.502Z,4.8
2023-05-22T11:35:00.358Z,6.2
2023-05-22T11:40:00.371Z,6.8
2023-05-22T11:45:00.338Z,6.9
2023-05-22T11:50:00.329Z,12.3
2023-05-22T11:55:00.278Z,14.5
2023-05-22T12:00:00.498Z,7.1
2023-05-22T12:05:00.379Z,4.6
2023-05-22T12:10:00.345Z,9.3
2023-05-22T12:15:00.312Z,14.5
2023-05-22T12:20:00.346Z,5.5
2023-05-22T12:25:00.288Z,9.1
2023-05-22T12:30:00.626Z,5.4
2023-05-22T12:35:00.346Z,8.3
2023-05-22T12:40:00.430Z,7.0
2023-05-22T12:45:00.622Z,8.7
2023-05-22T12:50:00.333Z,7.6
2023-05-22T12:55:00.396Z,9.0
2023-05-22T13:00:00.404Z,6.6
2023-05-22T13:05:00.419Z,7.9
2023-05-22T13:10:00.320Z,6.7
2023-05-22T13:15:00.423Z,6.2
2023-05-22T13:20:00.331Z,3.6
2023-05-22T13:25:00.306Z,7.9
2023-05-22T13:30:00.379Z,5.6
2023-05-22T13:35:00.320Z,2.3
2023-05-22T13:40:00.331Z,7.1
2023-05-22T13:45:00.328Z,5.0
2023-05-22T13:50:00.391Z,7.3
2023-05-22T13:55:00.489Z,6.0
2023-05-22T14:00:00.368Z,8.5
2023-05-22T14:05:00.400Z,9.2
2023-05-22T14:10:01.973Z,4.7
2023-05-22T14:15:00.313Z,5.5
2023-05-22T14:20:00.511Z,6.0
2023-05-22T14:25:00.367Z,5.0
2023-05-22T14:30:00.379Z,4.9
2023-05-22T14:35:00.313Z,4.1
2023-05-22T14:40:00.314Z,3.5
2023-05-22T14:45:00.332Z,4.2
2023-05-22T14:50:18.777Z,10.6
2023-05-22T14:55:00.285Z,4.0
2023-05-22T15:00:00.437Z,5.6
2023-05-22T15:05:00.550Z,9.8
2023-05-22T15:10:00.335Z,6.7
2023-05-22T15:15:00.343Z,8.6
2023-05-22T15:20:00.486Z,9.0
2023-05-22T15:25:00.502Z,4.2
2023-05-22T15:30:00.397Z,6.0
2023-05-22T15:35:00.334Z,6.6
2023-05-22T15:40:00.336Z,4.6
2023-05-22T15:45:00.369Z,6.1
2023-05-22T15:50:00.363Z,4.7
2023-05-22T15:55:00.698Z,6.1
2023-05-22T16:00:00.619Z,6.1
2023-05-22T16:05:00.273Z,5.3
2023-05-22T16:10:00.463Z,3.8
2023-05-22T16:15:02.860Z,4.6
2023-05-22T16:20:00.409Z,1.8
2023-05-22T16:25:00.294Z,4.6
2023-05-22T16:30:00.341Z,5.9
2023-05-22T16:35:00.347Z,2.9
2023-05-22T16:40:00.486Z,8.4
2023-05-22T16:45:00.358Z,9.4
2023-05-22T16:50:00.546Z,6.0
2023-05-22T16:55:00.327Z,9.2
2023-05-22T17:00:01.015Z,6.5
2023-05-22T17:05:00.376Z,1.3
2023-05-22T17:10:00.587Z,1.4
2023-05-22T17:15:00.460Z,4.1
2023-05-22T17:20:00.502Z,5.6
2023-05-22T17:25:00.293Z,5.0
2023-05-22T17:30:00.856Z,5.4
2023-05-22T17:35:00.345Z,5.3
2023-05-22T17:40:00.536Z,5.5
2023-05-22T17:45:00.575Z,5.4
2023-05-22T17:50:00.450Z,4.6
2023-05-22T17:55:00.349Z,5.9
2023-05-22T18:00:00.468Z,3.6
2023-05-22T18:05:00.318Z,5.3
2023-05-22T18:10:00.375Z,4.0
2023-05-22T18:15:00.568Z,5.5
2023-05-22T18:20:00.361Z,4.3
2023-05-22T18:25:00.350Z,2.9
2023-05-22T18:30:00.360Z,2.1
2023-05-22T18:35:00.319Z,3.7
2023-05-22T18:40:00.593Z,2.6
2023-05-22T18:45:00.483Z,3.1
2023-05-22T18:50:00.424Z,3.3
2023-05-22T18:55:00.331Z,2.0
2023-05-22T19:00:00.374Z,2.6
2023-05-22T19:05:00.487Z,1.4
2023-05-22T19:10:00.409Z,3.5
2023-05-22T19:15:00.303Z,1.3
2023-05-22T19:20:00.400Z,0.4
2023-05-22T19:25:00.392Z,1.4
2023-05-22T19:30:00.331Z,1.4
2023-05-22T19:35:00.296Z,0.6
2023-05-22T19:40:00.541Z,0.6
2023-05-22T19:45:00.335Z,1.8
2023-05-22T19:50:00.365Z,0.1
2023-05-22T19:55:00.329Z,0.8
2023-05-22T20:00:00.326Z,0.3
2023-05-22T20:05:00.348Z,1.0
2023-05-22T20:10:00.360Z,0.7
2023-05-22T20:15:00.308Z,0.7
2023-05-22T20:20:00.619Z,0.5
2023-05-22T20:25:00.284Z,0.9
2023-05-22T20:30:00.711Z,0.2
2023-05-22T20:35:00.267Z,0.0
2023-05-22T20:40:00.331Z,0.1
2023-05-22T20:45:00.382Z,0.1
2023-05-22T20:50:00.311Z,0.5
2023-05-22T20:55:00.271Z,0.5
2023-05-22T21:00:00.325Z,0.2
2023-05-22T21:05:00.315Z,0.3
2023-05-22T21:10:00.321Z,0.3
2023-05-22T21:15:00.286Z,0.4
2023-05-22T21:20:00.448Z,0.2
2023-05-22T21:25:00.379Z,0.1
2023-05-22T21:30:00.490Z,0.0
2023-05-22T21:35:00.286Z,2.2
2023-05-22T21:40:00.491Z,0.5
2023-05-22T21:45:00.848Z,0.4
2023-05-22T21:50:02.794Z,0.9
2023-05-22T21:55:00.349Z,0.1
2023-05-22T22:00:00.481Z,0.3
2023-05-22T22:05:00.270Z,0.5
2023-05-22T22:10:00.319Z,0.1
2023-05-22T22:15:00.310Z,0.0
2023-05-22T22:20:00.322Z,0.1
2023-05-22T22:25:00.311Z,0.2
2023-05-22T22:30:00.325Z,0.0
2023-05-22T22:35:00.307Z,0.0
2023-05-22T22:40:00.421Z,0.0
2023-05-22T22:45:00.297Z,0.0
2023-05-22T22:50:00.369Z,0.0
2023-05-22T22:55:00.416Z,0.0
2023-05-22T23:00:00.399Z,0.0
2023-05-22T23:05:00.682Z,0.1
2023-05-22T23:10:00.290Z,0.0
2023-05-22T23:15:00.327Z,0.0
2023-05-22T23:20:00.300Z,0.0
2023-05-22T23:25:00.435Z,0.0
2023-05-22T23:30:00.359Z,0.0
2023-05-22T23:35:00.364Z,0.0
2023-05-22T23:40:00.426Z,0.6
2023-05-22T23:45:00.296Z,1.1
2023-05-22T23:50:00.582Z,0.1
2023-05-22T23:55:00.277Z,0.5
